Time;durP1;ratioP1;P1;durP2;ratioP2;P2;SDS_P1;SDS_P2;PMS_P1;PMS_P2;Temp;Humidity;BMP_temperature;BMP_pressure;BME280_temperature;BME280_humidity;BME280_pressure;Samples;Min_cycle;Max_cycle;Signal;HPM_P1;HPM_P2
2023/12/21 00:00:54;;;;;;;93.43;46.30;;;-2.00;99.90;;;;;;4194706;28;20319;-62
2023/12/21 00:02:56;;;;;;;101.10;50.43;;;-1.90;99.90;;;;;;4195052;28;20351;-61
2023/12/21 00:04:58;;;;;;;104.87;51.70;;;-1.90;99.90;;;;;;4194408;28;20814;-62
2023/12/21 00:07:00;;;;;;;101.83;49.63;;;-1.90;99.90;;;;;;4194565;28;20289;-62
2023/12/21 00:09:02;;;;;;;100.00;48.67;;;-1.90;99.90;;;;;;4194841;28;20671;-62
2023/12/21 00:11:04;;;;;;;98.30;48.33;;;-1.90;99.90;;;;;;4194773;28;20273;-62
2023/12/21 00:13:05;;;;;;;97.37;47.07;;;-1.90;99.90;;;;;;4194057;28;20264;-62
2023/12/21 00:15:08;;;;;;;101.63;49.80;;;-1.90;99.90;;;;;;4194985;28;20266;-62
2023/12/21 00:17:09;;;;;;;105.13;49.23;;;-1.90;99.90;;;;;;4194397;28;20285;-61
2023/12/21 00:19:10;;;;;;;108.90;51.57;;;-1.90;99.90;;;;;;4194083;28;20354;-61
2023/12/21 00:21:11;;;;;;;102.63;50.63;;;-1.90;99.90;;;;;;4194449;28;20362;-63
2023/12/21 00:23:12;;;;;;;94.70;46.17;;;-1.90;99.90;;;;;;4194704;28;20397;-62
2023/12/21 00:25:14;;;;;;;94.73;49.27;;;-1.90;99.90;;;;;;4194277;28;20295;-62
2023/12/21 00:27:15;;;;;;;113.97;51.60;;;-1.90;99.90;;;;;;4193899;28;20331;-62
2023/12/21 00:29:16;;;;;;;114.83;51.67;;;-2.00;99.90;;;;;;4194339;28;20299;-62
2023/12/21 00:31:17;;;;;;;114.80;51.90;;;-2.10;99.90;;;;;;4193514;28;20270;-62
2023/12/21 00:33:19;;;;;;;110.67;53.70;;;-2.30;99.90;;;;;;4194010;28;20350;-60
2023/12/21 00:35:20;;;;;;;119.57;54.60;;;-2.40;99.90;;;;;;4193888;28;20292;-61
2023/12/21 00:37:22;;;;;;;106.83;49.63;;;-2.50;99.90;;;;;;4176516;28;20765;-62
2023/12/21 00:39:23;;;;;;;109.70;47.47;;;-2.50;99.90;;;;;;4193424;28;20625;-61
2023/12/21 00:41:24;;;;;;;96.97;47.87;;;-2.40;99.90;;;;;;4193544;28;20270;-62
2023/12/21 00:43:26;;;;;;;98.87;46.30;;;-2.30;99.90;;;;;;4193970;28;20971;-61
2023/12/21 00:45:27;;;;;;;93.43;42.40;;;-2.20;99.90;;;;;;4193634;28;20285;-62
2023/12/21 00:47:28;;;;;;;87.80;43.33;;;-2.10;99.90;;;;;;4192845;28;20359;-63
2023/12/21 00:49:30;;;;;;;91.10;42.37;;;-2.10;99.90;;;;;;4193580;28;20822;-62
2023/12/21 00:51:31;;;;;;;88.47;42.13;;;-2.00;99.90;;;;;;4176134;28;20290;-62
2023/12/21 00:53:32;;;;;;;88.20;42.97;;;-2.00;99.90;;;;;;4176199;28;20274;-62
2023/12/21 00:55:33;;;;;;;85.27;41.17;;;-1.90;99.90;;;;;;4194077;28;20326;-63
2023/12/21 00:57:34;;;;;;;84.77;41.40;;;-1.90;99.90;;;;;;4193532;28;20285;-60
2023/12/21 00:59:35;;;;;;;64.67;31.37;;;-1.80;99.90;;;;;;4194280;28;20269;-62
2023/12/21 01:01:37;;;;;;;61.10;28.97;;;-1.80;99.90;;;;;;4193955;28;20318;-62
2023/12/21 01:03:38;;;;;;;62.77;29.57;;;-1.70;99.90;;;;;;4192874;28;20286;-62
2023/12/21 01:05:39;;;;;;;58.57;27.87;;;-1.60;99.90;;;;;;4193706;28;20265;-62
2023/12/21 01:07:41;;;;;;;52.43;25.93;;;-1.50;99.90;;;;;;4193836;28;20850;-59
2023/12/21 01:09:42;;;;;;;50.67;24.00;;;-1.40;99.90;;;;;;4193184;28;20307;-61
2023/12/21 01:11:44;;;;;;;51.57;24.87;;;-1.30;99.90;;;;;;4193039;28;20315;-61
2023/12/21 01:13:45;;;;;;;50.30;24.17;;;-1.20;99.90;;;;;;4193443;28;20269;-61
2023/12/21 01:15:46;;;;;;;47.87;24.33;;;-1.10;99.90;;;;;;4175719;28;20286;-61
2023/12/21 01:17:47;;;;;;;49.20;24.97;;;-1.10;99.90;;;;;;4193257;28;20712;-60
2023/12/21 01:19:48;;;;;;;50.00;23.53;;;-1.00;99.90;;;;;;4192524;28;20277;-61
2023/12/21 01:21:50;;;;;;;50.40;25.27;;;-1.00;99.90;;;;;;4193825;28;20421;-61
2023/12/21 01:23:51;;;;;;;48.63;24.43;;;-0.90;99.90;;;;;;4193135;28;20679;-61
2023/12/21 01:25:52;;;;;;;47.83;23.63;;;-0.90;99.90;;;;;;4193475;28;20285;-60
2023/12/21 01:27:53;;;;;;;49.33;23.10;;;-0.80;99.90;;;;;;4193104;28;20293;-61
2023/12/21 01:29:54;;;;;;;45.83;22.43;;;-0.80;99.90;;;;;;4193861;28;20299;-61
2023/12/21 01:31:57;;;;;;;48.13;24.23;;;-0.70;99.90;;;;;;4193390;28;20266;-61
2023/12/21 01:33:59;;;;;;;52.23;24.93;;;-0.80;99.90;;;;;;4193515;28;20314;-62
2023/12/21 01:36:00;;;;;;;51.77;26.37;;;-0.70;99.90;;;;;;4192328;28;20277;-61
2023/12/21 01:38:01;;;;;;;53.77;27.07;;;-0.70;99.90;;;;;;4193411;28;20333;-62
2023/12/21 01:40:03;;;;;;;56.33;27.43;;;-0.80;99.90;;;;;;4193135;28;20275;-61
2023/12/21 01:42:05;;;;;;;49.17;24.50;;;-0.80;99.90;;;;;;4192713;28;20274;-62
2023/12/21 01:44:06;;;;;;;47.80;24.67;;;-0.80;99.90;;;;;;4192468;28;20556;-57
2023/12/21 01:46:08;;;;;;;48.37;24.57;;;-0.80;99.90;;;;;;4192572;28;20621;-61
2023/12/21 01:48:10;;;;;;;53.07;26.10;;;-0.80;99.90;;;;;;4192404;28;20297;-61
2023/12/21 01:50:12;;;;;;;54.63;27.13;;;-0.70;99.90;;;;;;4193298;28;20269;-60
2023/12/21 01:52:13;;;;;;;52.40;26.20;;;-0.70;99.90;;;;;;4192683;28;20315;-61
2023/12/21 01:54:15;;;;;;;52.80;27.77;;;-0.80;99.90;;;;;;4192360;28;20273;-61
2023/12/21 01:56:20;;;;;;;54.70;27.73;;;-0.80;99.90;;;;;;4192834;28;20641;-61
2023/12/21 01:58:22;;;;;;;57.17;28.43;;;-0.90;99.90;;;;;;4192299;28;20315;-60
2023/12/21 02:00:23;;;;;;;63.20;31.83;;;-0.90;99.90;;;;;;4191977;28;20327;-61
2023/12/21 02:02:24;;;;;;;59.33;29.10;;;-1.00;99.90;;;;;;4192222;28;20591;-61
2023/12/21 02:04:26;;;;;;;70.77;33.73;;;-1.10;99.90;;;;;;4192110;28;20678;-60
2023/12/21 02:06:27;;;;;;;66.10;32.77;;;-1.10;99.90;;;;;;4192986;28;20634;-61
2023/12/21 02:08:28;;;;;;;79.97;37.10;;;-1.20;99.90;;;;;;4192996;28;20390;-60
2023/12/21 02:10:29;;;;;;;78.27;41.73;;;-1.40;99.90;;;;;;4192499;28;20299;-61
2023/12/21 02:12:30;;;;;;;79.37;39.10;;;-1.50;99.90;;;;;;4192847;28;20702;-61
2023/12/21 02:14:32;;;;;;;71.97;35.30;;;-1.70;99.90;;;;;;4192049;28;20756;-62
2023/12/21 02:16:50;;;;;;;65.77;31.57;;;-1.70;99.90;;;;;;4192535;28;20315;-61
2023/12/21 02:18:51;;;;;;;61.00;30.30;;;-1.80;99.90;;;;;;4192256;28;20664;-61
2023/12/21 02:20:53;;;;;;;63.23;29.70;;;-1.70;99.90;;;;;;4192316;28;20311;-61
2023/12/21 02:22:56;;;;;;;62.97;31.37;;;-1.70;99.90;;;;;;4192410;28;20250;-59
2023/12/21 02:24:57;;;;;;;64.10;31.30;;;-1.60;99.90;;;;;;4192060;28;20277;-61
2023/12/21 02:26:59;;;;;;;61.23;31.70;;;-1.60;99.90;;;;;;4191761;28;20273;-60
2023/12/21 02:29:01;;;;;;;70.40;34.47;;;-1.60;99.90;;;;;;4192488;28;20696;-60
2023/12/21 02:31:02;;;;;;;65.97;32.90;;;-1.60;99.90;;;;;;4191798;28;20273;-61
2023/12/21 02:33:03;;;;;;;72.17;35.47;;;-1.60;99.90;;;;;;4191885;28;20277;-60
2023/12/21 02:35:05;;;;;;;73.17;34.80;;;-1.70;99.90;;;;;;4192476;28;20265;-61
2023/12/21 02:37:06;;;;;;;73.97;35.77;;;-1.70;99.90;;;;;;4192250;28;20284;-61
2023/12/21 02:39:07;;;;;;;77.80;35.17;;;-1.70;99.90;;;;;;4191941;28;20269;-60
2023/12/21 02:41:08;;;;;;;69.77;34.70;;;-1.70;99.90;;;;;;4192128;28;20737;-61
2023/12/21 02:43:09;;;;;;;72.77;34.87;;;-1.70;99.90;;;;;;4191959;28;20822;-60
2023/12/21 02:45:10;;;;;;;74.37;35.53;;;-1.70;99.90;;;;;;4192450;28;20291;-58
2023/12/21 02:47:12;;;;;;;74.23;34.73;;;-1.80;99.90;;;;;;4192134;28;20293;-60
2023/12/21 02:49:13;;;;;;;72.57;34.33;;;-1.80;99.90;;;;;;4192306;28;20682;-60
2023/12/21 02:51:15;;;;;;;75.70;35.10;;;-1.80;99.90;;;;;;4192199;28;20434;-59
2023/12/21 02:53:16;;;;;;;74.13;35.67;;;-1.80;99.90;;;;;;4192462;28;21120;-61
2023/12/21 02:55:17;;;;;;;70.50;35.20;;;-1.80;99.90;;;;;;4192762;28;20311;-61
2023/12/21 02:57:18;;;;;;;68.90;34.93;;;-1.80;99.90;;;;;;4191485;28;20335;-60
2023/12/21 02:59:19;;;;;;;71.40;34.33;;;-1.90;99.90;;;;;;4190900;28;20316;-60
2023/12/21 03:01:20;;;;;;;70.33;34.77;;;-1.90;99.90;;;;;;4191757;28;20339;-61
2023/12/21 03:03:22;;;;;;;68.20;35.47;;;-1.80;99.90;;;;;;4191866;28;20289;-60
2023/12/21 03:05:23;;;;;;;69.47;36.57;;;-1.90;99.90;;;;;;4192445;28;20756;-61
2023/12/21 03:07:24;;;;;;;65.27;34.57;;;-1.90;99.90;;;;;;4173493;28;20792;-61
2023/12/21 03:09:25;;;;;;;61.10;31.77;;;-2.00;99.90;;;;;;4192416;28;20354;-59
2023/12/21 03:11:26;;;;;;;64.77;33.00;;;-2.00;99.90;;;;;;4194028;28;20315;-60
2023/12/21 03:13:28;;;;;;;70.77;34.40;;;-2.00;99.90;;;;;;4196157;28;20300;-60
2023/12/21 03:15:29;;;;;;;81.23;38.23;;;-2.00;99.90;;;;;;4195319;28;20311;-61
2023/12/21 03:17:30;;;;;;;95.63;46.17;;;-1.90;99.90;;;;;;4195605;28;20303;-60
2023/12/21 03:19:31;;;;;;;82.30;39.27;;;-2.00;99.90;;;;;;4176301;28;20282;-60
2023/12/21 03:21:32;;;;;;;79.33;39.77;;;-2.00;99.90;;;;;;4195682;28;20665;-60
2023/12/21 03:23:35;;;;;;;79.37;39.37;;;-2.00;99.90;;;;;;4195648;28;20277;-60
2023/12/21 03:25:36;;;;;;;76.20;37.30;;;-2.00;99.90;;;;;;4195276;28;20342;-60
2023/12/21 03:27:37;;;;;;;78.17;39.33;;;-2.00;99.90;;;;;;4195236;28;20297;-60
2023/12/21 03:29:38;;;;;;;83.27;39.37;;;-2.00;99.90;;;;;;4194851;28;20766;-61
2023/12/21 03:31:40;;;;;;;89.97;40.07;;;-2.00;99.90;;;;;;4194581;28;20623;-61
2023/12/21 03:33:41;;;;;;;79.80;38.20;;;-2.00;99.90;;;;;;4194784;28;20393;-60
2023/12/21 03:35:42;;;;;;;68.57;35.97;;;-2.00;99.90;;;;;;4195330;28;20266;-60
2023/12/21 03:37:43;;;;;;;63.30;29.47;;;-2.00;99.90;;;;;;4195606;28;20352;-60
2023/12/21 03:39:45;;;;;;;55.30;29.03;;;-2.00;99.90;;;;;;4195463;28;20273;-60
2023/12/21 03:41:46;;;;;;;59.53;29.73;;;-2.00;99.90;;;;;;4194818;28;20266;-62
2023/12/21 03:43:47;;;;;;;61.27;30.63;;;-2.00;99.90;;;;;;4195486;28;20314;-62
2023/12/21 03:45:48;;;;;;;51.50;26.27;;;-2.10;99.90;;;;;;4194753;28;20277;-63
2023/12/21 03:47:49;;;;;;;51.47;26.13;;;-2.10;99.90;;;;;;4195475;28;20289;-60
2023/12/21 03:49:50;;;;;;;53.60;26.00;;;-2.10;99.90;;;;;;4194935;28;20257;-62
2023/12/21 03:51:52;;;;;;;54.30;26.90;;;-2.10;99.90;;;;;;4195398;28;20315;-61
2023/12/21 03:53:53;;;;;;;56.27;27.63;;;-2.10;99.90;;;;;;4195325;28;20262;-62
2023/12/21 03:55:54;;;;;;;49.90;26.13;;;-2.10;99.90;;;;;;4195267;28;20250;-62
2023/12/21 03:57:56;;;;;;;59.97;28.43;;;-2.10;99.90;;;;;;4195014;28;21090;-62
2023/12/21 03:59:57;;;;;;;52.33;25.83;;;-2.10;99.90;;;;;;4194891;28;20390;-63
2023/12/21 04:01:59;;;;;;;53.03;25.33;;;-2.10;99.90;;;;;;4194489;28;20334;-63
2023/12/21 04:04:00;;;;;;;54.00;26.10;;;-2.10;99.90;;;;;;4194352;28;20258;-63
2023/12/21 04:06:01;;;;;;;52.30;26.73;;;-2.10;99.90;;;;;;4195090;28;20741;-61
2023/12/21 04:08:02;;;;;;;55.87;27.93;;;-2.20;99.90;;;;;;4194870;28;20362;-62
2023/12/21 04:10:04;;;;;;;60.30;26.37;;;-2.10;99.90;;;;;;4194781;28;20265;-63
2023/12/21 04:12:06;;;;;;;51.93;26.87;;;-2.10;99.90;;;;;;4194346;28;20253;-61
2023/12/21 04:14:07;;;;;;;54.03;26.30;;;-2.10;99.90;;;;;;4194954;28;20262;-62
2023/12/21 04:16:08;;;;;;;54.10;26.03;;;-2.10;99.90;;;;;;4194274;28;20277;-61
2023/12/21 04:18:09;;;;;;;50.00;24.70;;;-2.10;99.90;;;;;;4194321;28;20612;-63
2023/12/21 04:20:11;;;;;;;47.40;24.67;;;-2.10;99.90;;;;;;4193879;28;20269;-61
2023/12/21 04:22:12;;;;;;;48.40;23.80;;;-2.20;99.90;;;;;;4193123;28;20289;-62
2023/12/21 04:24:14;;;;;;;55.93;27.77;;;-2.20;99.90;;;;;;4194887;28;20347;-64
2023/12/21 04:26:22;;;;;;;54.43;26.77;;;-2.30;99.90;;;;;;4194622;28;20285;-62
2023/12/21 04:28:23;;;;;;;62.27;28.93;;;-2.40;99.90;;;;;;4194489;28;20406;-63
2023/12/21 04:30:24;;;;;;;61.53;27.83;;;-2.40;99.90;;;;;;4194453;28;20319;-62
2023/12/21 04:32:26;;;;;;;76.00;30.77;;;-2.40;99.90;;;;;;4194681;28;20273;-62
2023/12/21 04:34:27;;;;;;;66.57;33.97;;;-2.40;99.90;;;;;;4194560;28;20265;-61
2023/12/21 04:36:28;;;;;;;72.20;35.13;;;-2.40;99.90;;;;;;4193069;28;20709;-63
2023/12/21 04:38:29;;;;;;;75.27;34.10;;;-2.40;99.90;;;;;;4193850;28;20273;-60
2023/12/21 04:40:31;;;;;;;68.63;32.70;;;-2.40;99.90;;;;;;4194173;28;20331;-63
2023/12/21 04:42:32;;;;;;;71.20;34.50;;;-2.40;99.90;;;;;;4194025;28;20273;-62
2023/12/21 04:44:33;;;;;;;70.60;35.13;;;-2.40;99.90;;;;;;4194567;28;20311;-61
2023/12/21 04:46:34;;;;;;;82.50;38.47;;;-2.30;99.90;;;;;;4193611;28;20660;-63
2023/12/21 04:48:35;;;;;;;73.33;33.03;;;-2.30;99.90;;;;;;4194370;28;20289;-63
2023/12/21 04:50:37;;;;;;;64.00;28.50;;;-2.30;99.90;;;;;;4194164;28;20291;-64
2023/12/21 04:52:38;;;;;;;66.83;31.27;;;-2.30;99.90;;;;;;4194581;28;20738;-63
2023/12/21 04:54:40;;;;;;;71.47;33.33;;;-2.20;99.90;;;;;;4193959;28;20277;-62
2023/12/21 04:56:41;;;;;;;76.17;34.43;;;-2.20;99.90;;;;;;4193331;28;20281;-63
2023/12/21 04:58:42;;;;;;;78.73;37.40;;;-2.10;99.90;;;;;;4194152;28;20258;-64
2023/12/21 05:00:50;;;;;;;78.60;38.27;;;-2.10;99.90;;;;;;4193492;28;20278;-61
2023/12/21 05:02:51;;;;;;;82.60;36.57;;;-2.10;99.90;;;;;;4193717;28;20293;-63
2023/12/21 05:04:52;;;;;;;71.83;35.73;;;-2.10;99.90;;;;;;4192517;28;20281;-63
2023/12/21 05:06:54;;;;;;;86.13;40.20;;;-2.00;99.90;;;;;;4194107;28;20257;-62
2023/12/21 05:08:56;;;;;;;95.40;41.23;;;-2.00;99.90;;;;;;4192768;28;20687;-62
2023/12/21 05:10:57;;;;;;;82.97;39.97;;;-1.90;99.90;;;;;;4192868;28;20292;-63
2023/12/21 05:12:59;;;;;;;85.50;41.13;;;-1.90;99.90;;;;;;4193776;28;20737;-61
2023/12/21 05:15:00;;;;;;;87.13;40.53;;;-1.90;99.90;;;;;;4193980;28;20277;-63
2023/12/21 05:17:01;;;;;;;80.53;39.57;;;-1.90;99.90;;;;;;4192819;28;20285;-62
2023/12/21 05:19:02;;;;;;;80.77;38.23;;;-1.90;99.90;;;;;;4192243;28;20676;-63
2023/12/21 05:21:08;;;;;;;76.83;38.30;;;-1.90;99.90;;;;;;4192932;28;20266;-61
2023/12/21 05:23:09;;;;;;;77.47;37.40;;;-1.90;99.90;;;;;;4193420;28;20846;-62
2023/12/21 05:25:10;;;;;;;78.37;37.90;;;-1.80;99.90;;;;;;4193053;28;20811;-63
2023/12/21 05:27:12;;;;;;;75.23;35.67;;;-1.80;99.90;;;;;;4193641;28;20266;-62
2023/12/21 05:29:13;;;;;;;83.80;38.10;;;-1.80;99.90;;;;;;4192328;28;20822;-62
2023/12/21 05:31:22;;;;;;;78.97;35.53;;;-1.80;99.90;;;;;;4193723;28;20265;-62
2023/12/21 05:33:23;;;;;;;81.57;36.03;;;-1.80;99.90;;;;;;4187418;28;20343;-61
2023/12/21 05:35:25;;;;;;;86.77;37.90;;;-1.70;99.90;;;;;;4192298;28;20273;-61
2023/12/21 05:37:29;;;;;;;91.37;38.50;;;-1.70;99.90;;;;;;4192547;28;20269;-61
2023/12/21 05:39:30;;;;;;;91.43;38.07;;;-1.70;99.90;;;;;;4193196;28;20726;-61
2023/12/21 05:41:31;;;;;;;83.07;36.73;;;-1.70;99.90;;;;;;4193179;28;20303;-61
2023/12/21 05:43:32;;;;;;;88.00;35.97;;;-1.70;99.90;;;;;;4192983;28;20287;-60
2023/12/21 05:45:33;;;;;;;94.97;36.90;;;-1.70;99.90;;;;;;4192917;28;20810;-60
2023/12/21 05:47:35;;;;;;;90.33;36.30;;;-1.70;99.90;;;;;;4190988;28;20273;-59
2023/12/21 05:49:36;;;;;;;96.17;35.97;;;-1.60;99.90;;;;;;4192778;28;20261;-58
2023/12/21 05:51:37;;;;;;;84.57;36.47;;;-1.60;99.90;;;;;;4192731;28;20261;-62
2023/12/21 05:53:38;;;;;;;95.63;37.93;;;-1.60;99.90;;;;;;4192778;28;20315;-60
2023/12/21 05:55:39;;;;;;;93.33;35.37;;;-1.60;99.90;;;;;;4192324;28;20295;-60
2023/12/21 05:57:41;;;;;;;82.23;34.03;;;-1.60;99.90;;;;;;4192843;28;20311;-60
2023/12/21 05:59:43;;;;;;;97.23;33.23;;;-1.60;99.90;;;;;;4192384;28;20307;-60
2023/12/21 06:01:45;;;;;;;94.47;36.23;;;-1.60;99.90;;;;;;4191722;28;20257;-61
2023/12/21 06:03:46;;;;;;;83.13;33.03;;;-1.50;99.90;;;;;;4191648;28;20901;-56
2023/12/21 06:05:49;;;;;;;117.73;32.77;;;-1.50;99.90;;;;;;4189183;28;20391;-60
2023/12/21 06:07:50;;;;;;;131.43;31.87;;;-1.50;99.90;;;;;;4192130;28;20277;-61
2023/12/21 06:09:52;;;;;;;96.97;33.17;;;-1.50;99.90;;;;;;4192931;28;20595;-56
2023/12/21 06:11:54;;;;;;;119.37;29.00;;;-1.50;99.90;;;;;;4191768;28;20656;-59
2023/12/21 06:13:55;;;;;;;89.90;30.60;;;-1.50;99.90;;;;;;4191719;28;20273;-59
2023/12/21 06:15:56;;;;;;;96.20;24.43;;;-1.50;99.90;;;;;;4192519;28;20824;-59
2023/12/21 06:17:58;;;;;;;152.57;30.43;;;-1.50;99.90;;;;;;4191464;28;20612;-58
2023/12/21 06:19:59;;;;;;;107.37;31.70;;;-1.50;99.90;;;;;;4191602;28;20269;-59
2023/12/21 06:22:00;;;;;;;107.60;31.67;;;-1.50;99.90;;;;;;4192081;28;20281;-60
2023/12/21 06:24:02;;;;;;;118.83;33.93;;;-1.50;99.90;;;;;;4192336;28;20823;-60
2023/12/21 06:26:03;;;;;;;117.73;28.60;;;-1.50;99.90;;;;;;4191616;28;20347;-62
2023/12/21 06:28:04;;;;;;;100.03;28.40;;;-1.60;99.90;;;;;;4192469;28;20307;-59
2023/12/21 06:30:07;;;;;;;90.87;28.07;;;-1.60;99.90;;;;;;4191077;28;20261;-60
2023/12/21 06:32:08;;;;;;;129.70;30.63;;;-1.70;99.90;;;;;;4192039;28;20291;-60
2023/12/21 06:34:09;;;;;;;138.50;33.70;;;-1.70;99.90;;;;;;4191527;28;20825;-59
2023/12/21 06:36:10;;;;;;;121.73;31.57;;;-1.70;99.90;;;;;;4191191;28;20762;-59
2023/12/21 06:38:11;;;;;;;83.33;29.50;;;-1.70;99.90;;;;;;4192458;28;20277;-57
2023/12/21 06:40:13;;;;;;;124.30;32.43;;;-1.70;99.90;;;;;;4192483;28;20269;-60
2023/12/21 06:42:14;;;;;;;90.13;29.80;;;-1.70;99.90;;;;;;4192138;28;20277;-60
2023/12/21 06:44:15;;;;;;;100.00;28.23;;;-1.70;99.90;;;;;;4191447;28;20281;-60
2023/12/21 06:46:16;;;;;;;71.63;27.23;;;-1.70;99.90;;;;;;4191183;28;20270;-58
2023/12/21 06:48:17;;;;;;;119.97;31.13;;;-1.60;99.90;;;;;;4191685;28;20285;-56
2023/12/21 06:50:20;;;;;;;104.93;27.37;;;-1.60;99.90;;;;;;4191688;28;20437;-61
2023/12/21 06:52:22;;;;;;;69.60;21.63;;;-1.60;99.90;;;;;;4191620;28;20277;-60
2023/12/21 06:54:23;;;;;;;86.63;23.90;;;-1.60;99.90;;;;;;4173784;28;20273;-60
2023/12/21 06:56:24;;;;;;;73.37;25.07;;;-1.60;99.90;;;;;;4192035;28;20791;-61
2023/12/21 06:58:27;;;;;;;100.23;28.13;;;-1.60;99.90;;;;;;4191719;28;20353;-61
2023/12/21 07:00:28;;;;;;;150.37;31.07;;;-1.60;99.90;;;;;;4173610;28;20320;-59
2023/12/21 07:02:30;;;;;;;85.50;28.53;;;-1.70;99.90;;;;;;4191027;28;20281;-61
2023/12/21 07:04:31;;;;;;;100.47;31.30;;;-1.60;99.90;;;;;;4191472;28;20773;-61
2023/12/21 07:06:32;;;;;;;92.63;30.77;;;-1.60;99.90;;;;;;4192207;28;20303;-60
2023/12/21 07:08:33;;;;;;;110.90;28.63;;;-1.60;99.90;;;;;;4191232;28;20366;-60
2023/12/21 07:10:34;;;;;;;117.30;30.37;;;-1.60;99.90;;;;;;4191582;28;20445;-61
2023/12/21 07:12:36;;;;;;;125.37;29.17;;;-1.50;99.90;;;;;;4191394;28;20344;-59
2023/12/21 07:14:40;;;;;;;113.23;26.73;;;-1.50;99.90;;;;;;4157378;28;20283;-61
2023/12/21 07:16:41;;;;;;;107.50;28.33;;;-1.50;99.90;;;;;;4173496;28;20270;-62
2023/12/21 07:18:42;;;;;;;97.07;26.83;;;-1.50;99.90;;;;;;4191326;28;20311;-60
2023/12/21 07:20:43;;;;;;;75.90;23.87;;;-1.50;99.90;;;;;;4191450;28;20269;-62
2023/12/21 07:22:44;;;;;;;100.90;19.60;;;-1.50;99.90;;;;;;4192121;28;20425;-59
2023/12/21 07:24:46;;;;;;;79.53;19.37;;;-1.40;99.90;;;;;;4192046;28;20266;-61
2023/12/21 07:26:47;;;;;;;113.03;18.57;;;-1.50;99.90;;;;;;4191337;28;20660;-62
2023/12/21 07:28:48;;;;;;;95.33;18.83;;;-1.50;99.90;;;;;;4191765;28;20374;-59
2023/12/21 07:30:49;;;;;;;66.17;21.27;;;-1.50;99.90;;;;;;4191064;28;20410;-61
2023/12/21 07:32:51;;;;;;;75.37;23.30;;;-1.50;99.90;;;;;;4190778;28;20285;-60
2023/12/21 07:34:52;;;;;;;75.87;21.27;;;-1.50;99.90;;;;;;4191730;28;20342;-56
2023/12/21 07:36:53;;;;;;;63.77;19.20;;;-1.50;99.90;;;;;;4191788;28;20261;-60
2023/12/21 07:38:54;;;;;;;65.97;20.87;;;-1.50;99.90;;;;;;4191489;28;20257;-59
2023/12/21 07:40:55;;;;;;;63.40;21.83;;;-1.50;99.90;;;;;;4191656;28;20262;-57
2023/12/21 07:42:57;;;;;;;86.87;21.90;;;-1.50;99.90;;;;;;4191767;28;20776;-59
2023/12/21 07:44:58;;;;;;;71.20;22.30;;;-1.50;99.90;;;;;;4191966;28;20261;-60
2023/12/21 07:46:59;;;;;;;73.07;22.70;;;-1.60;99.90;;;;;;4191430;28;20322;-61
2023/12/21 07:49:00;;;;;;;66.83;22.53;;;-1.50;99.90;;;;;;4191798;28;20374;-60
2023/12/21 07:51:01;;;;;;;101.23;24.23;;;-1.50;99.90;;;;;;4173914;28;20491;-61
2023/12/21 07:53:03;;;;;;;56.53;19.43;;;-1.50;99.90;;;;;;4191802;28;20326;-58
2023/12/21 07:55:05;;;;;;;67.63;18.03;;;-1.50;99.90;;;;;;4191795;28;20723;-60
2023/12/21 07:57:06;;;;;;;50.97;21.17;;;-1.50;99.90;;;;;;4193591;28;20261;-62
2023/12/21 07:59:08;;;;;;;39.27;14.90;;;-1.50;99.90;;;;;;4194985;28;20265;-61
2023/12/21 08:01:09;;;;;;;51.27;15.93;;;-1.50;99.90;;;;;;4193865;28;20262;-61
2023/12/21 08:03:10;;;;;;;76.23;19.33;;;-1.50;99.90;;;;;;4194443;28;20350;-60
2023/12/21 08:05:12;;;;;;;55.80;19.43;;;-1.50;99.90;;;;;;4193928;28;20334;-60
2023/12/21 08:07:14;;;;;;;65.37;20.77;;;-1.50;99.90;;;;;;4193155;28;20258;-61
2023/12/21 08:09:15;;;;;;;48.63;18.90;;;-1.40;99.90;;;;;;4194152;28;20359;-60
2023/12/21 08:11:16;;;;;;;68.07;24.47;;;-1.30;99.90;;;;;;4194602;28;20330;-62
2023/12/21 08:13:17;;;;;;;70.97;25.67;;;-1.30;99.90;;;;;;4194670;28;20265;-61
2023/12/21 08:15:19;;;;;;;70.60;22.73;;;-1.30;99.90;;;;;;4194559;28;20305;-62
2023/12/21 08:17:20;;;;;;;65.73;23.73;;;-1.20;99.90;;;;;;4194422;28;20745;-60
2023/12/21 08:19:21;;;;;;;54.20;19.57;;;-1.20;99.90;;;;;;4194184;28;20274;-60
2023/12/21 08:21:22;;;;;;;46.93;17.17;;;-1.20;99.90;;;;;;4194187;28;20343;-59
2023/12/21 08:23:23;;;;;;;53.63;18.00;;;-1.20;99.90;;;;;;4194638;28;20269;-60
2023/12/21 08:25:24;;;;;;;49.57;17.97;;;-1.20;99.90;;;;;;4194346;28;20674;-61
2023/12/21 08:27:26;;;;;;;51.87;19.10;;;-1.10;99.90;;;;;;4193555;28;20278;-61
2023/12/21 08:29:27;;;;;;;54.87;20.20;;;-1.00;99.90;;;;;;4194462;28;20343;-60
2023/12/21 08:31:28;;;;;;;54.40;19.67;;;-1.00;99.90;;;;;;4194065;28;20266;-60
2023/12/21 08:33:30;;;;;;;48.07;19.30;;;-1.00;99.90;;;;;;4175918;28;20328;-62
2023/12/21 08:35:31;;;;;;;59.93;20.70;;;-0.90;99.90;;;;;;4194066;28;20304;-60
2023/12/21 08:37:32;;;;;;;50.73;21.17;;;-0.90;99.90;;;;;;4194102;28;20261;-59
2023/12/21 08:39:34;;;;;;;57.17;20.70;;;-0.90;99.90;;;;;;4193399;28;20289;-60
2023/12/21 08:41:36;;;;;;;65.50;23.73;;;-0.90;99.90;;;;;;4194155;28;20315;-58
2023/12/21 08:43:37;;;;;;;56.80;22.80;;;-0.90;99.90;;;;;;4194119;28;20607;-57
2023/12/21 08:45:38;;;;;;;59.93;22.10;;;-1.00;99.90;;;;;;4193096;28;20691;-60
2023/12/21 08:47:43;;;;;;;65.37;24.00;;;-1.00;99.90;;;;;;4194300;28;20315;-58
2023/12/21 08:49:44;;;;;;;63.93;24.00;;;-1.00;99.90;;;;;;4194124;28;20316;-57
2023/12/21 08:51:46;;;;;;;57.80;22.53;;;-1.00;99.90;;;;;;4193468;28;20273;-59
2023/12/21 08:53:47;;;;;;;64.43;23.20;;;-1.00;99.90;;;;;;4193331;28;20281;-60
2023/12/21 08:55:48;;;;;;;54.50;21.43;;;-1.00;99.90;;;;;;4193775;28;20293;-61
2023/12/21 08:57:49;;;;;;;54.70;21.37;;;-1.10;99.90;;;;;;4193485;28;20285;-61
2023/12/21 08:59:51;;;;;;;62.87;26.13;;;-1.10;99.90;;;;;;4193671;28;20629;-59
2023/12/21 09:01:56;;;;;;;47.97;20.43;;;-1.00;99.90;;;;;;4193180;28;20335;-59
2023/12/21 09:03:58;;;;;;;51.63;21.53;;;-1.00;99.90;;;;;;4193065;28;20362;-57
2023/12/21 09:05:59;;;;;;;57.20;22.60;;;-1.00;99.90;;;;;;4193094;28;20672;-60
2023/12/21 09:08:00;;;;;;;61.60;24.03;;;-1.10;99.90;;;;;;4192617;28;20335;-61
2023/12/21 09:10:03;;;;;;;83.43;28.50;;;-1.10;99.90;;;;;;4193462;28;20622;-60
2023/12/21 09:12:04;;;;;;;80.70;26.47;;;-1.20;99.90;;;;;;4175468;28;21395;-59
2023/12/21 09:14:07;;;;;;;102.40;28.03;;;-1.20;99.90;;;;;;4193418;28;20262;-59
2023/12/21 09:16:08;;;;;;;79.20;28.17;;;-1.30;99.90;;;;;;4193534;28;20285;-59
2023/12/21 09:18:09;;;;;;;71.47;27.97;;;-1.30;99.90;;;;;;4193678;28;20318;-60
2023/12/21 09:20:13;;;;;;;78.33;26.13;;;-1.30;99.90;;;;;;4193251;28;20761;-58
2023/12/21 09:22:14;;;;;;;81.40;31.30;;;-1.30;99.90;;;;;;4193654;28;20326;-58
2023/12/21 09:24:15;;;;;;;74.37;30.50;;;-1.30;99.90;;;;;;4193242;28;20438;-59
2023/12/21 09:26:16;;;;;;;85.23;29.27;;;-1.40;99.90;;;;;;4193436;28;20273;-56
2023/12/21 09:28:17;;;;;;;85.73;31.43;;;-1.30;99.90;;;;;;4192482;28;20277;-60
2023/12/21 09:30:20;;;;;;;84.27;28.20;;;-1.30;99.90;;;;;;4193411;28;20289;-59
2023/12/21 09:32:22;;;;;;;82.77;29.77;;;-1.30;99.90;;;;;;4193141;28;20323;-59
2023/12/21 09:34:23;;;;;;;105.87;27.87;;;-1.40;99.90;;;;;;4193417;28;20323;-60
2023/12/21 09:36:24;;;;;;;100.40;28.70;;;-1.40;99.90;;;;;;4192736;28;20327;-59
2023/12/21 09:38:25;;;;;;;76.57;26.03;;;-1.50;99.90;;;;;;4193192;28;20640;-59
2023/12/21 09:40:26;;;;;;;112.70;30.87;;;-1.50;99.90;;;;;;4191896;28;20319;-58
2023/12/21 09:42:29;;;;;;;76.20;27.97;;;-1.50;99.90;;;;;;4193233;28;20724;-58
2023/12/21 09:44:31;;;;;;;80.67;27.27;;;-1.40;99.90;;;;;;4192435;28;20265;-56
2023/12/21 09:46:39;;;;;;;78.43;27.47;;;-1.40;99.90;;;;;;4192635;28;20269;-59
2023/12/21 09:48:42;;;;;;;77.63;27.00;;;-1.40;99.90;;;;;;4192877;28;20269;-60
2023/12/21 09:50:45;;;;;;;61.73;24.37;;;-1.50;99.90;;;;;;4192673;28;20330;-59
2023/12/21 09:52:49;;;;;;;73.47;27.03;;;-1.50;99.90;;;;;;4193401;28;20287;-59
2023/12/21 09:54:51;;;;;;;100.17;27.93;;;-1.40;99.90;;;;;;4192258;28;20273;-58
2023/12/21 09:56:53;;;;;;;94.40;30.53;;;-1.50;99.90;;;;;;4192533;28;20307;-59
2023/12/21 09:58:56;;;;;;;70.20;26.50;;;-1.50;99.90;;;;;;4192119;28;20261;-60
2023/12/21 10:00:58;;;;;;;60.47;25.77;;;-1.50;99.90;;;;;;4192687;28;20254;-60
2023/12/21 10:02:59;;;;;;;69.07;26.27;;;-1.60;99.90;;;;;;4192201;28;20273;-57
2023/12/21 10:05:03;;;;;;;62.27;26.73;;;-1.50;99.90;;;;;;4192086;28;20258;-59
2023/12/21 10:07:04;;;;;;;65.97;26.73;;;-1.60;99.90;;;;;;4192242;28;20734;-60
2023/12/21 10:09:05;;;;;;;57.53;25.53;;;-1.60;99.90;;;;;;4192713;28;20346;-60
2023/12/21 10:11:07;;;;;;;62.50;26.70;;;-1.60;99.90;;;;;;4191891;28;20649;-59
2023/12/21 10:13:08;;;;;;;72.00;27.83;;;-1.60;99.90;;;;;;4192735;28;20775;-60
2023/12/21 10:15:12;;;;;;;67.80;27.77;;;-1.60;99.90;;;;;;4192403;28;20768;-59